sensor_id;sensor_type;location;lat;lon;timestamp;P1;durP1;ratioP1;P2;durP2;ratioP2
70102;SDS011;57470;50.034;15.256;2023-03-01T00:00:39;7.28;;;2.42;;
70102;SDS011;57470;50.034;15.256;2023-03-01T00:03:05;6.97;;;1.60;;
70102;SDS011;57470;50.034;15.256;2023-03-01T00:05:31;5.63;;;2.50;;
70102;SDS011;57470;50.034;15.256;2023-03-01T00:07:57;6.35;;;2.95;;
70102;SDS011;57470;50.034;15.256;2023-03-01T00:10:22;4.50;;;2.63;;
70102;SDS011;57470;50.034;15.256;2023-03-01T00:12:48;4.13;;;1.60;;
70102;SDS011;57470;50.034;15.256;2023-03-01T00:15:14;5.97;;;2.50;;
70102;SDS011;57470;50.034;15.256;2023-03-01T00:17:39;5.57;;;2.77;;
70102;SDS011;57470;50.034;15.256;2023-03-01T00:20:05;9.85;;;3.15;;
70102;SDS011;57470;50.034;15.256;2023-03-01T00:22:35;7.32;;;2.33;;
70102;SDS011;57470;50.034;15.256;2023-03-01T00:25:01;6.50;;;2.55;;
70102;SDS011;57470;50.034;15.256;2023-03-01T00:27:27;12.13;;;3.70;;
70102;SDS011;57470;50.034;15.256;2023-03-01T00:29:52;6.40;;;2.93;;
70102;SDS011;57470;50.034;15.256;2023-03-01T00:32:17;5.30;;;2.03;;
70102;SDS011;57470;50.034;15.256;2023-03-01T00:34:43;4.67;;;2.60;;
70102;SDS011;57470;50.034;15.256;2023-03-01T00:37:18;3.50;;;1.08;;
70102;SDS011;57470;50.034;15.256;2023-03-01T00:39:44;7.97;;;2.88;;
70102;SDS011;57470;50.034;15.256;2023-03-01T00:42:10;10.50;;;3.60;;
70102;SDS011;57470;50.034;15.256;2023-03-01T00:44:35;11.83;;;2.83;;
70102;SDS011;57470;50.034;15.256;2023-03-01T00:47:00;6.73;;;2.73;;
70102;SDS011;57470;50.034;15.256;2023-03-01T00:49:26;8.83;;;2.67;;
70102;SDS011;57470;50.034;15.256;2023-03-01T00:51:52;5.28;;;2.60;;
70102;SDS011;57470;50.034;15.256;2023-03-01T00:54:18;12.60;;;3.55;;
70102;SDS011;57470;50.034;15.256;2023-03-01T00:56:43;8.98;;;2.60;;
70102;SDS011;57470;50.034;15.256;2023-03-01T00:59:09;3.97;;;1.20;;
70102;SDS011;57470;50.034;15.256;2023-03-01T01:01:34;5.77;;;2.50;;
70102;SDS011;57470;50.034;15.256;2023-03-01T01:04:07;7.50;;;2.53;;
70102;SDS011;57470;50.034;15.256;2023-03-01T01:06:35;3.50;;;1.50;;
70102;SDS011;57470;50.034;15.256;2023-03-01T01:09:08;5.30;;;2.10;;
70102;SDS011;57470;50.034;15.256;2023-03-01T01:11:34;5.75;;;2.05;;
70102;SDS011;57470;50.034;15.256;2023-03-01T01:14:01;5.03;;;2.25;;
70102;SDS011;57470;50.034;15.256;2023-03-01T01:16:27;7.75;;;3.08;;
70102;SDS011;57470;50.034;15.256;2023-03-01T01:18:53;11.05;;;2.95;;
70102;SDS011;57470;50.034;15.256;2023-03-01T01:21:21;5.32;;;2.60;;
70102;SDS011;57470;50.034;15.256;2023-03-01T01:23:48;4.28;;;2.55;;
70102;SDS011;57470;50.034;15.256;2023-03-01T01:26:24;3.05;;;1.10;;
70102;SDS011;57470;50.034;15.256;2023-03-01T01:28:51;5.28;;;2.13;;
70102;SDS011;57470;50.034;15.256;2023-03-01T01:31:17;5.67;;;3.00;;
70102;SDS011;57470;50.034;15.256;2023-03-01T01:33:44;8.43;;;2.88;;
70102;SDS011;57470;50.034;15.256;2023-03-01T01:36:09;5.60;;;1.63;;
70102;SDS011;57470;50.034;15.256;2023-03-01T01:38:35;8.33;;;3.90;;
70102;SDS011;57470;50.034;15.256;2023-03-01T01:41:02;8.15;;;3.40;;
70102;SDS011;57470;50.034;15.256;2023-03-01T01:43:29;7.38;;;3.53;;
70102;SDS011;57470;50.034;15.256;2023-03-01T01:46:04;6.05;;;3.53;;
70102;SDS011;57470;50.034;15.256;2023-03-01T01:48:39;9.52;;;3.58;;
70102;SDS011;57470;50.034;15.256;2023-03-01T01:51:13;4.32;;;2.08;;
70102;SDS011;57470;50.034;15.256;2023-03-01T01:53:49;5.75;;;2.25;;
70102;SDS011;57470;50.034;15.256;2023-03-01T01:56:18;8.10;;;3.13;;
70102;SDS011;57470;50.034;15.256;2023-03-01T01:58:46;6.22;;;3.65;;
70102;SDS011;57470;50.034;15.256;2023-03-01T02:01:12;4.38;;;2.22;;
70102;SDS011;57470;50.034;15.256;2023-03-01T02:03:38;10.93;;;4.50;;
70102;SDS011;57470;50.034;15.256;2023-03-01T02:09:03;4.28;;;1.40;;
70102;SDS011;57470;50.034;15.256;2023-03-01T02:11:33;4.75;;;2.28;;
70102;SDS011;57470;50.034;15.256;2023-03-01T02:13:58;8.55;;;2.85;;
70102;SDS011;57470;50.034;15.256;2023-03-01T02:16:25;8.23;;;2.63;;
70102;SDS011;57470;50.034;15.256;2023-03-01T02:18:51;5.15;;;2.03;;
70102;SDS011;57470;50.034;15.256;2023-03-01T02:24:18;6.10;;;2.13;;
70102;SDS011;57470;50.034;15.256;2023-03-01T02:27:01;4.40;;;2.15;;
70102;SDS011;57470;50.034;15.256;2023-03-01T02:29:26;7.13;;;1.67;;
70102;SDS011;57470;50.034;15.256;2023-03-01T02:31:53;4.53;;;2.17;;
70102;SDS011;57470;50.034;15.256;2023-03-01T02:34:23;6.63;;;2.22;;
70102;SDS011;57470;50.034;15.256;2023-03-01T02:37:05;3.88;;;2.47;;
70102;SDS011;57470;50.034;15.256;2023-03-01T02:39:40;11.75;;;3.60;;
70102;SDS011;57470;50.034;15.256;2023-03-01T02:42:12;3.95;;;2.08;;
70102;SDS011;57470;50.034;15.256;2023-03-01T02:44:40;4.90;;;2.05;;
70102;SDS011;57470;50.034;15.256;2023-03-01T02:47:05;5.30;;;2.30;;
70102;SDS011;57470;50.034;15.256;2023-03-01T02:49:32;15.43;;;3.57;;
70102;SDS011;57470;50.034;15.256;2023-03-01T02:55:01;2.70;;;1.08;;
70102;SDS011;57470;50.034;15.256;2023-03-01T02:57:33;4.60;;;1.90;;
70102;SDS011;57470;50.034;15.256;2023-03-01T03:00:06;4.17;;;1.53;;
70102;SDS011;57470;50.034;15.256;2023-03-01T03:02:36;4.00;;;2.35;;
70102;SDS011;57470;50.034;15.256;2023-03-01T03:05:04;4.22;;;2.50;;
70102;SDS011;57470;50.034;15.256;2023-03-01T03:07:36;4.57;;;2.08;;
70102;SDS011;57470;50.034;15.256;2023-03-01T03:10:06;4.90;;;3.13;;
70102;SDS011;57470;50.034;15.256;2023-03-01T03:12:37;5.27;;;2.50;;
70102;SDS011;57470;50.034;15.256;2023-03-01T03:15:04;4.43;;;2.47;;
70102;SDS011;57470;50.034;15.256;2023-03-01T03:17:37;6.85;;;3.50;;
70102;SDS011;57470;50.034;15.256;2023-03-01T03:20:06;3.40;;;1.30;;
70102;SDS011;57470;50.034;15.256;2023-03-01T03:22:39;7.10;;;3.55;;
70102;SDS011;57470;50.034;15.256;2023-03-01T03:25:07;10.57;;;3.20;;
70102;SDS011;57470;50.034;15.256;2023-03-01T03:27:36;7.90;;;2.28;;
70102;SDS011;57470;50.034;15.256;2023-03-01T03:30:04;6.35;;;2.47;;
70102;SDS011;57470;50.034;15.256;2023-03-01T03:32:35;4.93;;;2.00;;
70102;SDS011;57470;50.034;15.256;2023-03-01T03:35:05;4.82;;;3.17;;
70102;SDS011;57470;50.034;15.256;2023-03-01T03:37:37;5.47;;;3.23;;
70102;SDS011;57470;50.034;15.256;2023-03-01T03:40:23;6.60;;;2.40;;
70102;SDS011;57470;50.034;15.256;2023-03-01T03:42:49;3.63;;;1.90;;
70102;SDS011;57470;50.034;15.256;2023-03-01T03:45:17;13.43;;;5.57;;
70102;SDS011;57470;50.034;15.256;2023-03-01T03:47:43;8.23;;;3.95;;
70102;SDS011;57470;50.034;15.256;2023-03-01T03:50:10;9.25;;;3.88;;
70102;SDS011;57470;50.034;15.256;2023-03-01T03:52:37;17.23;;;4.57;;
70102;SDS011;57470;50.034;15.256;2023-03-01T03:55:03;15.00;;;5.43;;
70102;SDS011;57470;50.034;15.256;2023-03-01T03:57:34;7.93;;;3.50;;
70102;SDS011;57470;50.034;15.256;2023-03-01T03:59:59;8.50;;;2.80;;
70102;SDS011;57470;50.034;15.256;2023-03-01T04:02:25;8.97;;;3.50;;
70102;SDS011;57470;50.034;15.256;2023-03-01T04:04:51;26.05;;;5.18;;
70102;SDS011;57470;50.034;15.256;2023-03-01T04:07:16;16.87;;;4.30;;
70102;SDS011;57470;50.034;15.256;2023-03-01T04:09:42;15.53;;;5.20;;
70102;SDS011;57470;50.034;15.256;2023-03-01T04:12:08;10.55;;;5.57;;
70102;SDS011;57470;50.034;15.256;2023-03-01T04:14:34;12.48;;;4.32;;
70102;SDS011;57470;50.034;15.256;2023-03-01T04:17:00;7.77;;;4.00;;
70102;SDS011;57470;50.034;15.256;2023-03-01T04:19:26;6.22;;;3.65;;
70102;SDS011;57470;50.034;15.256;2023-03-01T04:21:52;8.38;;;3.60;;
70102;SDS011;57470;50.034;15.256;2023-03-01T04:24:17;4.80;;;2.38;;
70102;SDS011;57470;50.034;15.256;2023-03-01T04:26:43;2.97;;;1.70;;
70102;SDS011;57470;50.034;15.256;2023-03-01T04:29:08;7.17;;;3.43;;
70102;SDS011;57470;50.034;15.256;2023-03-01T04:31:33;5.20;;;2.23;;
70102;SDS011;57470;50.034;15.256;2023-03-01T04:33:59;3.93;;;1.90;;
70102;SDS011;57470;50.034;15.256;2023-03-01T04:36:26;10.05;;;4.07;;
70102;SDS011;57470;50.034;15.256;2023-03-01T04:38:53;5.43;;;3.42;;
70102;SDS011;57470;50.034;15.256;2023-03-01T04:41:20;5.28;;;2.15;;
70102;SDS011;57470;50.034;15.256;2023-03-01T04:43:47;5.45;;;2.17;;
70102;SDS011;57470;50.034;15.256;2023-03-01T04:46:14;11.02;;;4.05;;
70102;SDS011;57470;50.034;15.256;2023-03-01T04:48:42;10.30;;;2.90;;
70102;SDS011;57470;50.034;15.256;2023-03-01T04:51:08;7.30;;;3.35;;
70102;SDS011;57470;50.034;15.256;2023-03-01T04:53:34;6.43;;;3.70;;
70102;SDS011;57470;50.034;15.256;2023-03-01T04:56:03;8.73;;;3.65;;
70102;SDS011;57470;50.034;15.256;2023-03-01T04:58:28;10.05;;;3.55;;
70102;SDS011;57470;50.034;15.256;2023-03-01T05:00:54;7.70;;;3.03;;
70102;SDS011;57470;50.034;15.256;2023-03-01T05:03:20;7.10;;;2.63;;
70102;SDS011;57470;50.034;15.256;2023-03-01T05:05:48;4.53;;;2.53;;
70102;SDS011;57470;50.034;15.256;2023-03-01T05:08:15;7.03;;;3.97;;
70102;SDS011;57470;50.034;15.256;2023-03-01T05:10:48;5.47;;;2.38;;
70102;SDS011;57470;50.034;15.256;2023-03-01T05:13:18;4.97;;;2.35;;
70102;SDS011;57470;50.034;15.256;2023-03-01T05:18:18;8.70;;;2.78;;
70102;SDS011;57470;50.034;15.256;2023-03-01T05:20:43;2.85;;;1.13;;
70102;SDS011;57470;50.034;15.256;2023-03-01T05:23:09;3.27;;;1.30;;
70102;SDS011;57470;50.034;15.256;2023-03-01T05:25:35;5.57;;;2.85;;
70102;SDS011;57470;50.034;15.256;2023-03-01T05:28:05;6.13;;;2.97;;
70102;SDS011;57470;50.034;15.256;2023-03-01T05:30:35;9.82;;;3.22;;
70102;SDS011;57470;50.034;15.256;2023-03-01T05:33:00;5.80;;;2.92;;
70102;SDS011;57470;50.034;15.256;2023-03-01T05:35:27;6.33;;;1.87;;
70102;SDS011;57470;50.034;15.256;2023-03-01T05:37:53;5.93;;;2.45;;
70102;SDS011;57470;50.034;15.256;2023-03-01T05:40:19;3.70;;;1.90;;
70102;SDS011;57470;50.034;15.256;2023-03-01T05:42:48;5.60;;;3.10;;
70102;SDS011;57470;50.034;15.256;2023-03-01T05:45:16;4.53;;;2.65;;
70102;SDS011;57470;50.034;15.256;2023-03-01T05:47:42;6.28;;;2.65;;
70102;SDS011;57470;50.034;15.256;2023-03-01T05:50:22;6.10;;;2.97;;
70102;SDS011;57470;50.034;15.256;2023-03-01T05:52:56;2.87;;;1.30;;
70102;SDS011;57470;50.034;15.256;2023-03-01T05:55:26;31.92;;;2.10;;
70102;SDS011;57470;50.034;15.256;2023-03-01T05:57:51;3.35;;;1.70;;
70102;SDS011;57470;50.034;15.256;2023-03-01T06:00:17;5.53;;;2.37;;
70102;SDS011;57470;50.034;15.256;2023-03-01T06:02:47;8.30;;;3.95;;
70102;SDS011;57470;50.034;15.256;2023-03-01T06:05:12;3.27;;;1.07;;
70102;SDS011;57470;50.034;15.256;2023-03-01T06:07:38;6.25;;;3.00;;
70102;SDS011;57470;50.034;15.256;2023-03-01T06:10:04;5.10;;;2.47;;
70102;SDS011;57470;50.034;15.256;2023-03-01T06:12:32;13.95;;;3.17;;
70102;SDS011;57470;50.034;15.256;2023-03-01T06:14:58;4.38;;;1.98;;
70102;SDS011;57470;50.034;15.256;2023-03-01T06:17:24;5.90;;;1.60;;
70102;SDS011;57470;50.034;15.256;2023-03-01T06:19:49;7.80;;;2.53;;
70102;SDS011;57470;50.034;15.256;2023-03-01T06:22:15;12.33;;;3.37;;
70102;SDS011;57470;50.034;15.256;2023-03-01T06:24:40;13.47;;;5.83;;
70102;SDS011;57470;50.034;15.256;2023-03-01T06:27:05;7.40;;;4.78;;
70102;SDS011;57470;50.034;15.256;2023-03-01T06:29:31;5.40;;;2.47;;
70102;SDS011;57470;50.034;15.256;2023-03-01T06:31:56;6.47;;;3.17;;
70102;SDS011;57470;50.034;15.256;2023-03-01T06:34:22;10.80;;;4.00;;
70102;SDS011;57470;50.034;15.256;2023-03-01T06:36:47;5.93;;;2.93;;
70102;SDS011;57470;50.034;15.256;2023-03-01T06:39:12;6.43;;;2.97;;
70102;SDS011;57470;50.034;15.256;2023-03-01T06:41:38;13.63;;;4.15;;
70102;SDS011;57470;50.034;15.256;2023-03-01T06:44:03;8.07;;;3.33;;
70102;SDS011;57470;50.034;15.256;2023-03-01T06:46:29;5.27;;;3.10;;
70102;SDS011;57470;50.034;15.256;2023-03-01T06:48:54;12.97;;;5.07;;
70102;SDS011;57470;50.034;15.256;2023-03-01T06:51:20;9.17;;;4.80;;
70102;SDS011;57470;50.034;15.256;2023-03-01T06:53:45;11.27;;;3.30;;
70102;SDS011;57470;50.034;15.256;2023-03-01T06:56:11;11.88;;;4.53;;
70102;SDS011;57470;50.034;15.256;2023-03-01T06:58:37;13.30;;;4.63;;
70102;SDS011;57470;50.034;15.256;2023-03-01T07:01:06;11.00;;;4.63;;
70102;SDS011;57470;50.034;15.256;2023-03-01T07:03:32;7.22;;;4.60;;
70102;SDS011;57470;50.034;15.256;2023-03-01T07:05:57;14.57;;;5.87;;
70102;SDS011;57470;50.034;15.256;2023-03-01T07:08:23;21.50;;;7.00;;
70102;SDS011;57470;50.034;15.256;2023-03-01T07:10:48;21.97;;;9.93;;
70102;SDS011;57470;50.034;15.256;2023-03-01T07:13:19;30.10;;;11.30;;
70102;SDS011;57470;50.034;15.256;2023-03-01T07:15:44;37.93;;;17.73;;
70102;SDS011;57470;50.034;15.256;2023-03-01T07:18:09;27.77;;;12.50;;
70102;SDS011;57470;50.034;15.256;2023-03-01T07:20:35;22.60;;;10.00;;
70102;SDS011;57470;50.034;15.256;2023-03-01T07:23:00;20.53;;;8.40;;
70102;SDS011;57470;50.034;15.256;2023-03-01T07:25:26;21.00;;;9.57;;
70102;SDS011;57470;50.034;15.256;2023-03-01T07:27:51;16.60;;;6.50;;
70102;SDS011;57470;50.034;15.256;2023-03-01T07:30:17;17.40;;;8.15;;
70102;SDS011;57470;50.034;15.256;2023-03-01T07:32:43;14.98;;;5.57;;
70102;SDS011;57470;50.034;15.256;2023-03-01T07:35:10;14.88;;;6.03;;
70102;SDS011;57470;50.034;15.256;2023-03-01T07:37:35;12.07;;;5.00;;
70102;SDS011;57470;50.034;15.256;2023-03-01T07:40:01;14.10;;;6.17;;
70102;SDS011;57470;50.034;15.256;2023-03-01T07:42:26;18.03;;;8.00;;
70102;SDS011;57470;50.034;15.256;2023-03-01T07:44:51;16.10;;;7.10;;
70102;SDS011;57470;50.034;15.256;2023-03-01T07:47:17;15.87;;;6.60;;
70102;SDS011;57470;50.034;15.256;2023-03-01T07:49:42;21.90;;;5.97;;
70102;SDS011;57470;50.034;15.256;2023-03-01T07:52:09;18.23;;;7.60;;
70102;SDS011;57470;50.034;15.256;2023-03-01T07:54:35;19.58;;;8.55;;
70102;SDS011;57470;50.034;15.256;2023-03-01T07:57:01;14.80;;;7.13;;
70102;SDS011;57470;50.034;15.256;2023-03-01T07:59:26;11.43;;;5.23;;
70102;SDS011;57470;50.034;15.256;2023-03-01T08:01:54;14.90;;;5.28;;
70102;SDS011;57470;50.034;15.256;2023-03-01T08:04:20;13.70;;;6.33;;
70102;SDS011;57470;50.034;15.256;2023-03-01T08:06:46;14.88;;;5.03;;
70102;SDS011;57470;50.034;15.256;2023-03-01T08:09:11;11.33;;;5.10;;
70102;SDS011;57470;50.034;15.256;2023-03-01T08:11:36;13.07;;;5.83;;
70102;SDS011;57470;50.034;15.256;2023-03-01T08:14:02;12.30;;;5.60;;
70102;SDS011;57470;50.034;15.256;2023-03-01T08:16:28;10.70;;;4.30;;
70102;SDS011;57470;50.034;15.256;2023-03-01T08:18:53;11.67;;;5.27;;
70102;SDS011;57470;50.034;15.256;2023-03-01T08:21:21;11.02;;;4.32;;
70102;SDS011;57470;50.034;15.256;2023-03-01T08:23:46;10.07;;;3.53;;
70102;SDS011;57470;50.034;15.256;2023-03-01T08:26:16;10.23;;;4.57;;
70102;SDS011;57470;50.034;15.256;2023-03-01T08:28:43;8.88;;;4.53;;
70102;SDS011;57470;50.034;15.256;2023-03-01T08:31:19;11.95;;;3.80;;
70102;SDS011;57470;50.034;15.256;2023-03-01T08:33:47;10.03;;;4.37;;
70102;SDS011;57470;50.034;15.256;2023-03-01T08:36:17;8.80;;;5.13;;
70102;SDS011;57470;50.034;15.256;2023-03-01T08:38:42;10.52;;;4.78;;
70102;SDS011;57470;50.034;15.256;2023-03-01T08:41:08;12.33;;;4.60;;
70102;SDS011;57470;50.034;15.256;2023-03-01T08:43:33;9.47;;;3.80;;
70102;SDS011;57470;50.034;15.256;2023-03-01T08:45:58;14.53;;;3.93;;
70102;SDS011;57470;50.034;15.256;2023-03-01T08:48:24;13.23;;;3.83;;
70102;SDS011;57470;50.034;15.256;2023-03-01T08:50:50;10.23;;;4.63;;
70102;SDS011;57470;50.034;15.256;2023-03-01T08:53:15;16.75;;;4.38;;
70102;SDS011;57470;50.034;15.256;2023-03-01T08:55:41;13.70;;;5.30;;
70102;SDS011;57470;50.034;15.256;2023-03-01T08:58:06;9.77;;;3.57;;
70102;SDS011;57470;50.034;15.256;2023-03-01T09:00:32;12.87;;;4.23;;
70102;SDS011;57470;50.034;15.256;2023-03-01T09:02:59;5.82;;;2.88;;
70102;SDS011;57470;50.034;15.256;2023-03-01T09:05:25;9.37;;;4.00;;
70102;SDS011;57470;50.034;15.256;2023-03-01T09:07:50;7.50;;;2.27;;
70102;SDS011;57470;50.034;15.256;2023-03-01T09:10:16;7.90;;;3.83;;
70102;SDS011;57470;50.034;15.256;2023-03-01T09:12:41;8.75;;;4.55;;
70102;SDS011;57470;50.034;15.256;2023-03-01T09:15:07;6.83;;;2.40;;
70102;SDS011;57470;50.034;15.256;2023-03-01T09:17:32;7.28;;;2.50;;
70102;SDS011;57470;50.034;15.256;2023-03-01T09:19:58;6.70;;;2.57;;
70102;SDS011;57470;50.034;15.256;2023-03-01T09:22:24;7.43;;;2.88;;
70102;SDS011;57470;50.034;15.256;2023-03-01T09:24:50;15.13;;;4.17;;
70102;SDS011;57470;50.034;15.256;2023-03-01T09:27:15;7.90;;;2.33;;
70102;SDS011;57470;50.034;15.256;2023-03-01T09:29:43;11.10;;;3.17;;
70102;SDS011;57470;50.034;15.256;2023-03-01T09:32:09;9.57;;;3.90;;
70102;SDS011;57470;50.034;15.256;2023-03-01T09:34:34;9.65;;;3.08;;
70102;SDS011;57470;50.034;15.256;2023-03-01T09:37:20;6.87;;;2.30;;
70102;SDS011;57470;50.034;15.256;2023-03-01T09:39:45;10.15;;;3.20;;
70102;SDS011;57470;50.034;15.256;2023-03-01T09:42:11;8.23;;;3.53;;
70102;SDS011;57470;50.034;15.256;2023-03-01T09:44:46;10.23;;;3.30;;
70102;SDS011;57470;50.034;15.256;2023-03-01T09:47:18;7.70;;;3.40;;
70102;SDS011;57470;50.034;15.256;2023-03-01T09:49:45;7.57;;;3.40;;
70102;SDS011;57470;50.034;15.256;2023-03-01T09:52:25;9.90;;;2.13;;
70102;SDS011;57470;50.034;15.256;2023-03-01T09:54:56;9.00;;;4.25;;
70102;SDS011;57470;50.034;15.256;2023-03-01T10:11:01;12.35;;;3.47;;
70102;SDS011;57470;50.034;15.256;2023-03-01T10:13:29;10.57;;;3.72;;
70102;SDS011;57470;50.034;15.256;2023-03-01T10:16:09;10.13;;;4.18;;
70102;SDS011;57470;50.034;15.256;2023-03-01T10:18:39;9.43;;;4.37;;
70102;SDS011;57470;50.034;15.256;2023-03-01T10:21:17;15.60;;;5.45;;
70102;SDS011;57470;50.034;15.256;2023-03-01T10:23:44;9.40;;;3.85;;
70102;SDS011;57470;50.034;15.256;2023-03-01T10:29:10;19.25;;;4.30;;
70102;SDS011;57470;50.034;15.256;2023-03-01T10:34:10;11.23;;;5.07;;
70102;SDS011;57470;50.034;15.256;2023-03-01T10:36:38;13.68;;;6.32;;
70102;SDS011;57470;50.034;15.256;2023-03-01T10:39:10;9.68;;;3.90;;
70102;SDS011;57470;50.034;15.256;2023-03-01T10:42:19;13.05;;;3.90;;
70102;SDS011;57470;50.034;15.256;2023-03-01T10:44:44;8.27;;;3.00;;
70102;SDS011;57470;50.034;15.256;2023-03-01T10:47:25;11.82;;;3.08;;
70102;SDS011;57470;50.034;15.256;2023-03-01T10:52:20;14.10;;;4.93;;
70102;SDS011;57470;50.034;15.256;2023-03-01T10:54:54;6.25;;;2.50;;
70102;SDS011;57470;50.034;15.256;2023-03-01T10:57:39;6.37;;;3.23;;
70102;SDS011;57470;50.034;15.256;2023-03-01T11:00:16;7.65;;;3.47;;
70102;SDS011;57470;50.034;15.256;2023-03-01T11:02:49;10.15;;;3.47;;
70102;SDS011;57470;50.034;15.256;2023-03-01T11:05:20;10.00;;;3.10;;
70102;SDS011;57470;50.034;15.256;2023-03-01T11:07:51;5.75;;;3.38;;
70102;SDS011;57470;50.034;15.256;2023-03-01T11:10:29;11.20;;;5.33;;
70102;SDS011;57470;50.034;15.256;2023-03-01T11:13:06;9.00;;;3.67;;
70102;SDS011;57470;50.034;15.256;2023-03-01T11:15:40;4.35;;;1.80;;
70102;SDS011;57470;50.034;15.256;2023-03-01T11:18:17;7.68;;;2.70;;
70102;SDS011;57470;50.034;15.256;2023-03-01T11:20:45;7.60;;;2.67;;
70102;SDS011;57470;50.034;15.256;2023-03-01T11:23:14;5.10;;;1.87;;
70102;SDS011;57470;50.034;15.256;2023-03-01T11:25:42;7.22;;;2.80;;
70102;SDS011;57470;50.034;15.256;2023-03-01T11:28:12;10.00;;;4.15;;
70102;SDS011;57470;50.034;15.256;2023-03-01T11:30:44;8.55;;;3.47;;
70102;SDS011;57470;50.034;15.256;2023-03-01T11:38:51;9.40;;;2.80;;
70102;SDS011;57470;50.034;15.256;2023-03-01T11:41:23;11.13;;;4.50;;
70102;SDS011;57470;50.034;15.256;2023-03-01T11:49:45;11.05;;;4.15;;
70102;SDS011;57470;50.034;15.256;2023-03-01T12:06:32;7.55;;;3.10;;
70102;SDS011;57470;50.034;15.256;2023-03-01T12:09:19;7.10;;;3.42;;
70102;SDS011;57470;50.034;15.256;2023-03-01T12:18:57;9.15;;;3.92;;
70102;SDS011;57470;50.034;15.256;2023-03-01T12:37:13;10.48;;;4.25;;
70102;SDS011;57470;50.034;15.256;2023-03-01T12:40:11;6.40;;;2.90;;
70102;SDS011;57470;50.034;15.256;2023-03-01T12:50:46;11.57;;;3.53;;
70102;SDS011;57470;50.034;15.256;2023-03-01T12:53:24;7.20;;;2.75;;
70102;SDS011;57470;50.034;15.256;2023-03-01T12:55:53;11.73;;;4.03;;
70102;SDS011;57470;50.034;15.256;2023-03-01T12:58:25;11.52;;;3.33;;
70102;SDS011;57470;50.034;15.256;2023-03-01T13:01:02;7.40;;;2.88;;
70102;SDS011;57470;50.034;15.256;2023-03-01T13:04:02;9.40;;;3.40;;
70102;SDS011;57470;50.034;15.256;2023-03-01T13:11:48;16.15;;;4.30;;
70102;SDS011;57470;50.034;15.256;2023-03-01T13:16:48;8.93;;;2.78;;
70102;SDS011;57470;50.034;15.256;2023-03-01T13:19:16;9.43;;;3.92;;
70102;SDS011;57470;50.034;15.256;2023-03-01T13:21:43;13.68;;;4.68;;
70102;SDS011;57470;50.034;15.256;2023-03-01T13:34:50;8.18;;;3.35;;
70102;SDS011;57470;50.034;15.256;2023-03-01T13:37:41;9.60;;;2.88;;
70102;SDS011;57470;50.034;15.256;2023-03-01T13:43:29;7.80;;;4.18;;
70102;SDS011;57470;50.034;15.256;2023-03-01T13:45:47;10.15;;;4.53;;
70102;SDS011;57470;50.034;15.256;2023-03-01T13:50:49;9.20;;;4.10;;
70102;SDS011;57470;50.034;15.256;2023-03-01T13:53:20;7.67;;;3.63;;
70102;SDS011;57470;50.034;15.256;2023-03-01T13:55:53;11.80;;;4.40;;
70102;SDS011;57470;50.034;15.256;2023-03-01T13:58:44;12.00;;;4.05;;
70102;SDS011;57470;50.034;15.256;2023-03-01T14:01:20;8.98;;;3.33;;
70102;SDS011;57470;50.034;15.256;2023-03-01T14:03:52;6.18;;;2.17;;
70102;SDS011;57470;50.034;15.256;2023-03-01T14:06:22;6.23;;;1.87;;
70102;SDS011;57470;50.034;15.256;2023-03-01T14:09:02;9.55;;;4.63;;
70102;SDS011;57470;50.034;15.256;2023-03-01T14:11:53;10.83;;;3.93;;
70102;SDS011;57470;50.034;15.256;2023-03-01T14:19:39;10.50;;;3.85;;
70102;SDS011;57470;50.034;15.256;2023-03-01T14:22:22;8.95;;;3.63;;
70102;SDS011;57470;50.034;15.256;2023-03-01T14:24:50;8.10;;;3.23;;
70102;SDS011;57470;50.034;15.256;2023-03-01T14:27:19;5.88;;;2.45;;
70102;SDS011;57470;50.034;15.256;2023-03-01T14:29:53;6.40;;;2.45;;
70102;SDS011;57470;50.034;15.256;2023-03-01T14:32:24;8.93;;;3.47;;
70102;SDS011;57470;50.034;15.256;2023-03-01T14:34:52;7.23;;;3.27;;
70102;SDS011;57470;50.034;15.256;2023-03-01T14:37:19;7.93;;;2.97;;
70102;SDS011;57470;50.034;15.256;2023-03-01T14:39:55;10.40;;;3.83;;
70102;SDS011;57470;50.034;15.256;2023-03-01T14:42:22;11.87;;;4.27;;
70102;SDS011;57470;50.034;15.256;2023-03-01T14:44:51;8.10;;;3.35;;
70102;SDS011;57470;50.034;15.256;2023-03-01T14:47:25;11.20;;;3.63;;
70102;SDS011;57470;50.034;15.256;2023-03-01T14:49:56;8.70;;;3.17;;
70102;SDS011;57470;50.034;15.256;2023-03-01T14:52:25;6.57;;;3.28;;
70102;SDS011;57470;50.034;15.256;2023-03-01T14:55:05;7.80;;;2.73;;
70102;SDS011;57470;50.034;15.256;2023-03-01T14:57:38;10.30;;;3.28;;
70102;SDS011;57470;50.034;15.256;2023-03-01T15:00:10;8.43;;;2.92;;
70102;SDS011;57470;50.034;15.256;2023-03-01T15:02:43;13.52;;;5.43;;
70102;SDS011;57470;50.034;15.256;2023-03-01T15:05:13;9.07;;;3.22;;
70102;SDS011;57470;50.034;15.256;2023-03-01T15:07:40;7.83;;;2.70;;
70102;SDS011;57470;50.034;15.256;2023-03-01T15:10:32;7.57;;;4.32;;
70102;SDS011;57470;50.034;15.256;2023-03-01T15:13:10;6.85;;;2.45;;
70102;SDS011;57470;50.034;15.256;2023-03-01T15:15:43;8.93;;;3.08;;
70102;SDS011;57470;50.034;15.256;2023-03-01T15:18:14;15.60;;;2.35;;
70102;SDS011;57470;50.034;15.256;2023-03-01T15:20:43;7.20;;;2.73;;
70102;SDS011;57470;50.034;15.256;2023-03-01T15:25:47;7.22;;;2.25;;
70102;SDS011;57470;50.034;15.256;2023-03-01T15:28:21;10.70;;;3.13;;
70102;SDS011;57470;50.034;15.256;2023-03-01T15:30:56;9.65;;;3.45;;
70102;SDS011;57470;50.034;15.256;2023-03-01T15:35:55;11.60;;;2.67;;
70102;SDS011;57470;50.034;15.256;2023-03-01T15:41:05;10.15;;;4.13;;
70102;SDS011;57470;50.034;15.256;2023-03-01T15:43:47;10.02;;;3.95;;
70102;SDS011;57470;50.034;15.256;2023-03-01T15:46:31;12.77;;;3.77;;
70102;SDS011;57470;50.034;15.256;2023-03-01T15:48:59;9.02;;;3.70;;
70102;SDS011;57470;50.034;15.256;2023-03-01T15:51:30;8.27;;;3.40;;
70102;SDS011;57470;50.034;15.256;2023-03-01T15:53:58;13.23;;;3.53;;
70102;SDS011;57470;50.034;15.256;2023-03-01T15:56:25;8.75;;;3.13;;
70102;SDS011;57470;50.034;15.256;2023-03-01T15:58:51;16.80;;;4.90;;
70102;SDS011;57470;50.034;15.256;2023-03-01T16:01:16;8.60;;;3.67;;
70102;SDS011;57470;50.034;15.256;2023-03-01T16:03:43;10.85;;;3.63;;
70102;SDS011;57470;50.034;15.256;2023-03-01T16:06:09;11.02;;;3.75;;
70102;SDS011;57470;50.034;15.256;2023-03-01T16:08:36;8.70;;;4.30;;
70102;SDS011;57470;50.034;15.256;2023-03-01T16:11:02;8.65;;;3.88;;
70102;SDS011;57470;50.034;15.256;2023-03-01T16:13:30;12.02;;;4.32;;
70102;SDS011;57470;50.034;15.256;2023-03-01T16:15:56;12.93;;;5.07;;
70102;SDS011;57470;50.034;15.256;2023-03-01T16:18:22;9.13;;;3.97;;
70102;SDS011;57470;50.034;15.256;2023-03-01T16:20:48;14.47;;;5.77;;
70102;SDS011;57470;50.034;15.256;2023-03-01T16:23:14;12.27;;;4.73;;
70102;SDS011;57470;50.034;15.256;2023-03-01T16:25:40;9.88;;;4.25;;
70102;SDS011;57470;50.034;15.256;2023-03-01T16:28:06;9.93;;;3.75;;
70102;SDS011;57470;50.034;15.256;2023-03-01T16:30:35;12.77;;;3.77;;
70102;SDS011;57470;50.034;15.256;2023-03-01T16:33:01;8.82;;;3.47;;
70102;SDS011;57470;50.034;15.256;2023-03-01T16:35:27;12.10;;;3.80;;
70102;SDS011;57470;50.034;15.256;2023-03-01T16:37:52;8.30;;;3.23;;
70102;SDS011;57470;50.034;15.256;2023-03-01T16:40:20;8.07;;;3.22;;
70102;SDS011;57470;50.034;15.256;2023-03-01T16:42:50;6.50;;;2.67;;
70102;SDS011;57470;50.034;15.256;2023-03-01T16:45:16;11.95;;;3.67;;